createdAt,value
2017-05-12T00:01:32.888Z,26.58
2017-05-12T00:04:01.937Z,26.70
2017-05-12T00:06:31.091Z,27.66
2017-05-12T00:09:00.142Z,27.88
2017-05-12T00:11:29.284Z,26.10
2017-05-12T00:13:59.092Z,28.62
2017-05-12T00:16:28.171Z,27.04
2017-05-12T00:18:57.979Z,27.48
2017-05-12T00:21:27.792Z,27.54
2017-05-12T00:23:56.834Z,29.18
2017-05-12T00:26:25.994Z,30.26
2017-05-12T00:28:55.792Z,31.06
2017-05-12T00:31:24.875Z,28.76
2017-05-12T00:33:54.017Z,29.34
2017-05-12T00:36:23.093Z,30.10
2017-05-12T00:38:52.188Z,30.10
2017-05-12T00:41:22.004Z,30.60
2017-05-12T00:43:51.786Z,29.12
2017-05-12T00:46:20.844Z,30.10
2017-05-12T00:48:49.901Z,30.22
2017-05-12T00:51:19.711Z,32.88
2017-05-12T00:53:49.525Z,31.28
2017-05-12T00:56:19.326Z,30.42
2017-05-12T00:58:48.443Z,32.46
2017-05-12T01:01:17.597Z,33.00
2017-05-12T01:03:47.381Z,32.22
2017-05-12T01:06:16.438Z,34.36
2017-05-12T01:08:45.497Z,33.80
2017-05-12T01:11:15.304Z,32.24
2017-05-12T01:13:44.405Z,31.98
2017-05-12T01:16:14.210Z,32.56
2017-05-12T01:18:43.314Z,32.58
2017-05-12T01:21:13.143Z,31.48
2017-05-12T01:23:43.039Z,32.74
2017-05-12T01:26:12.097Z,32.82
2017-05-12T01:28:41.156Z,34.64
2017-05-12T01:31:10.262Z,38.96
2017-05-12T01:33:39.366Z,31.36
2017-05-12T01:36:09.286Z,35.02
2017-05-12T01:38:39.087Z,35.76
2017-05-12T01:41:08.905Z,36.22
2017-05-12T01:43:38.718Z,35.34
2017-05-12T01:46:08.723Z,35.82
2017-05-12T01:48:37.818Z,37.12
2017-05-12T01:51:07.637Z,36.78
2017-05-12T01:53:37.451Z,36.84
2017-05-12T01:56:07.268Z,37.24
2017-05-12T01:58:37.080Z,36.70
2017-05-12T02:01:06.877Z,34.36
2017-05-12T02:03:35.990Z,35.56
2017-05-12T02:06:05.787Z,33.54
2017-05-12T02:08:34.889Z,35.46
2017-05-12T02:11:04.697Z,38.78
2017-05-12T02:13:33.740Z,38.86
2017-05-12T02:16:02.902Z,43.80
2017-05-12T02:18:32.686Z,36.54
2017-05-12T02:21:01.749Z,37.10
2017-05-12T02:23:30.798Z,39.68
2017-05-12T02:26:00.713Z,37.94
2017-05-12T02:28:29.828Z,35.62
2017-05-12T02:30:59.647Z,40.56
2017-05-12T02:33:28.696Z,38.44
2017-05-12T02:35:57.817Z,36.08
2017-05-12T02:38:27.615Z,37.76
2017-05-12T02:40:56.721Z,38.96
2017-05-12T02:43:26.555Z,40.10
2017-05-12T02:45:55.616Z,40.00
2017-05-12T02:48:24.663Z,41.84
2017-05-12T02:50:53.842Z,40.52
2017-05-12T02:53:23.620Z,38.48
2017-05-12T02:55:52.742Z,40.40
2017-05-12T02:58:22.555Z,38.16
2017-05-12T03:00:52.476Z,38.04
2017-05-12T03:03:22.254Z,41.24
2017-05-12T03:05:51.470Z,40.52
2017-05-12T03:08:20.498Z,41.62
2017-05-12T03:10:49.669Z,44.90
2017-05-12T03:13:19.449Z,45.62
2017-05-12T03:15:48.574Z,42.86
2017-05-12T03:18:18.385Z,41.58
2017-05-12T03:20:48.211Z,43.46
2017-05-12T03:23:17.250Z,42.48
2017-05-12T03:25:46.327Z,41.04
2017-05-12T03:28:15.374Z,42.94
2017-05-12T03:30:44.414Z,42.22
2017-05-12T03:33:13.538Z,42.08
2017-05-12T03:35:43.355Z,47.70
2017-05-12T03:38:13.159Z,43.62
2017-05-12T03:40:42.964Z,43.46
2017-05-12T03:43:12.767Z,47.76
2017-05-12T03:45:41.812Z,43.74
2017-05-12T03:48:10.869Z,47.82
2017-05-12T03:50:39.904Z,44.74
2017-05-12T03:53:09.160Z,46.48
2017-05-12T03:55:38.257Z,46.26
2017-05-12T03:58:07.422Z,45.04
2017-05-12T04:00:37.211Z,43.88
2017-05-12T04:03:06.287Z,49.60
2017-05-12T04:05:35.436Z,45.32
2017-05-12T04:08:05.247Z,51.52
2017-05-12T04:10:35.053Z,47.42
2017-05-12T04:13:04.849Z,46.32
2017-05-12T04:15:33.890Z,43.66
2017-05-12T04:18:02.948Z,43.90
2017-05-12T04:20:31.994Z,44.70
2017-05-12T04:23:01.149Z,42.74
2017-05-12T04:25:30.246Z,44.54
2017-05-12T04:27:59.343Z,47.02
2017-05-12T04:30:29.155Z,46.22
2017-05-12T04:32:59.058Z,48.12
2017-05-12T04:35:28.869Z,43.56
2017-05-12T04:37:58.687Z,44.76
2017-05-12T04:40:28.474Z,50.16
2017-05-12T04:42:57.596Z,45.86
2017-05-12T04:45:26.782Z,45.36
2017-05-12T04:47:55.819Z,49.58
2017-05-12T04:50:24.941Z,51.08
2017-05-12T04:52:53.985Z,46.56
2017-05-12T04:55:23.987Z,45.36
2017-05-12T04:57:53.029Z,44.46
2017-05-12T05:00:22.199Z,45.32
2017-05-12T05:02:52.002Z,49.88
2017-05-12T05:05:21.146Z,44.88
2017-05-12T05:07:50.957Z,51.98
2017-05-12T05:10:20.777Z,49.76
2017-05-12T05:12:50.565Z,49.52
2017-05-12T05:15:19.780Z,45.34
2017-05-12T05:17:48.891Z,48.22
2017-05-12T05:20:18.691Z,46.70
2017-05-12T05:22:48.498Z,45.06
2017-05-12T05:25:18.338Z,44.50
2017-05-12T05:27:48.136Z,46.84
2017-05-12T05:30:17.934Z,47.02
2017-05-12T05:32:47.720Z,44.82
2017-05-12T05:35:16.860Z,41.48
2017-05-12T05:37:46.673Z,43.26
2017-05-12T05:40:16.583Z,43.38
2017-05-12T05:42:45.637Z,46.34
2017-05-12T05:45:14.694Z,43.42
2017-05-12T05:47:43.741Z,43.86
2017-05-12T05:50:12.814Z,45.52
2017-05-12T05:52:41.854Z,42.90
2017-05-12T05:55:11.653Z,44.12
2017-05-12T05:57:40.763Z,45.32
2017-05-12T06:00:09.817Z,43.70
2017-05-12T06:02:38.884Z,41.18
2017-05-12T06:05:07.953Z,45.86
2017-05-12T06:07:37.792Z,45.90
2017-05-12T06:10:06.950Z,42.60
2017-05-12T06:12:36.059Z,43.18
2017-05-12T06:15:05.871Z,44.02
2017-05-12T06:17:35.695Z,43.38
2017-05-12T06:20:05.500Z,44.36
2017-05-12T06:22:35.427Z,43.60
2017-05-12T06:25:05.205Z,42.08
2017-05-12T06:27:34.323Z,44.64
2017-05-12T06:30:04.133Z,44.52
2017-05-12T06:32:33.967Z,42.16
2017-05-12T06:35:03.022Z,42.34
2017-05-12T06:37:32.833Z,43.30
2017-05-12T06:40:02.645Z,39.28
2017-05-12T06:42:32.474Z,43.28
2017-05-12T06:45:01.513Z,42.44
2017-05-12T06:47:30.652Z,41.44
2017-05-12T06:50:00.441Z,42.94
2017-05-12T06:52:29.562Z,41.12
2017-05-12T06:54:59.374Z,38.74
2017-05-12T06:57:29.205Z,42.04
2017-05-12T06:59:58.295Z,40.14
2017-05-12T07:02:27.421Z,40.02
2017-05-12T07:04:57.250Z,40.16
2017-05-12T07:07:26.310Z,42.92
2017-05-12T07:09:55.433Z,39.08
2017-05-12T07:12:25.237Z,40.06
2017-05-12T07:14:55.147Z,38.42
2017-05-12T07:17:24.268Z,44.48
2017-05-12T07:19:53.310Z,38.32
2017-05-12T07:22:22.443Z,38.62
2017-05-12T07:24:51.497Z,37.28
2017-05-12T07:27:20.565Z,38.54
2017-05-12T07:29:49.608Z,39.48
2017-05-12T07:32:18.679Z,39.36
2017-05-12T07:34:48.495Z,38.84
2017-05-12T07:37:17.558Z,37.86
2017-05-12T07:39:46.605Z,39.94
2017-05-12T07:42:15.743Z,36.88
2017-05-12T07:44:44.797Z,34.26
2017-05-12T07:47:13.873Z,39.30
2017-05-12T07:49:42.930Z,36.00
2017-05-12T07:52:12.005Z,35.16
2017-05-12T07:54:41.066Z,34.82
2017-05-12T07:57:10.282Z,34.10
2017-05-12T07:59:40.323Z,37.26
2017-05-12T08:02:10.110Z,34.22
2017-05-12T08:04:39.178Z,35.84
2017-05-12T08:07:08.223Z,34.12
2017-05-12T08:09:38.062Z,36.22
2017-05-12T08:12:07.113Z,39.90
2017-05-12T08:14:36.239Z,32.20
2017-05-12T08:17:06.057Z,34.94
2017-05-12T08:19:35.140Z,35.42
2017-05-12T08:22:05.010Z,34.72
2017-05-12T08:24:34.207Z,33.60
2017-05-12T08:27:03.270Z,34.36
2017-05-12T08:29:32.393Z,31.78
2017-05-12T08:32:01.437Z,33.14
2017-05-12T08:34:31.239Z,35.18
2017-05-12T08:37:00.350Z,32.38
2017-05-12T08:39:30.163Z,32.62
2017-05-12T08:41:59.977Z,33.08
2017-05-12T08:44:29.802Z,35.72
2017-05-12T08:46:59.606Z,33.34
2017-05-12T08:49:29.416Z,32.04
2017-05-12T08:51:59.235Z,33.60
2017-05-12T08:54:29.035Z,31.04
2017-05-12T08:56:58.089Z,30.98
2017-05-12T08:59:27.150Z,29.46
2017-05-12T09:01:56.229Z,27.36
2017-05-12T09:04:26.017Z,32.34
2017-05-12T09:06:55.141Z,28.78
2017-05-12T09:09:24.950Z,30.54
2017-05-12T09:11:54.768Z,28.98
2017-05-12T09:14:24.576Z,30.52
2017-05-12T09:16:54.374Z,29.64
2017-05-12T09:19:23.494Z,27.06
2017-05-12T09:21:53.398Z,28.06
2017-05-12T09:24:23.191Z,26.52
2017-05-12T09:26:52.313Z,27.42
2017-05-12T09:29:22.097Z,27.50
2017-05-12T09:31:51.165Z,25.78
2017-05-12T09:34:20.220Z,27.56
2017-05-12T09:36:50.138Z,27.78
2017-05-12T09:39:20.035Z,25.78
2017-05-12T09:41:49.090Z,28.26
2017-05-12T09:44:18.144Z,23.04
2017-05-12T09:46:47.199Z,26.46
2017-05-12T09:49:17.105Z,25.38
2017-05-12T09:51:46.907Z,25.28
2017-05-12T09:54:16.024Z,26.22
2017-05-12T09:56:45.837Z,24.82
2017-05-12T09:59:15.650Z,24.54
2017-05-12T10:01:45.553Z,22.70
2017-05-12T10:04:15.471Z,22.82
2017-05-12T10:06:45.263Z,23.32
2017-05-12T10:09:14.321Z,23.22
2017-05-12T10:11:43.373Z,21.14
2017-05-12T10:14:13.289Z,23.44
2017-05-12T10:16:43.094Z,21.30
2017-05-12T10:19:12.296Z,24.34
2017-05-12T10:21:41.392Z,19.36
2017-05-12T10:24:11.208Z,22.66
2017-05-12T10:26:41.032Z,19.50
2017-05-12T10:29:10.937Z,18.12
2017-05-12T10:31:40.726Z,17.46
2017-05-12T10:34:09.863Z,18.78
2017-05-12T10:36:38.941Z,17.30
2017-05-12T10:39:08.725Z,15.86
2017-05-12T10:41:37.857Z,15.78
2017-05-12T10:44:07.667Z,16.08
2017-05-12T10:46:37.488Z,16.34
2017-05-12T10:49:06.535Z,14.38
2017-05-12T10:51:35.614Z,17.88
2017-05-12T10:54:04.686Z,15.92
2017-05-12T10:56:33.759Z,15.56
2017-05-12T10:59:03.537Z,13.76
2017-05-12T11:01:32.597Z,11.66
2017-05-12T11:04:01.671Z,13.40
2017-05-12T11:06:30.766Z,12.28
2017-05-12T11:08:59.858Z,12.06
2017-05-12T11:11:29.657Z,12.74
2017-05-12T11:13:59.465Z,12.12
2017-05-12T11:16:28.513Z,10.22
2017-05-12T11:18:57.583Z,11.74
2017-05-12T11:21:26.670Z,10.74
2017-05-12T11:23:56.537Z,10.84
2017-05-12T11:26:25.673Z,10.50
2017-05-12T11:28:55.494Z,11.58
2017-05-12T11:31:25.281Z,11.84
2017-05-12T11:33:54.402Z,11.92
2017-05-12T11:36:24.199Z,10.82
2017-05-12T11:38:53.305Z,11.18
2017-05-12T11:41:23.090Z,10.02
2017-05-12T11:43:52.140Z,10.42
2017-05-12T11:46:21.182Z,11.14
2017-05-12T11:48:50.270Z,11.16
2017-05-12T11:51:19.405Z,10.36
2017-05-12T11:53:49.320Z,11.34
2017-05-12T11:56:19.127Z,11.18
2017-05-12T11:58:48.934Z,12.20
2017-05-12T12:01:18.736Z,11.04
2017-05-12T12:03:47.840Z,11.12
2017-05-12T12:06:17.629Z,10.32
2017-05-12T12:08:46.695Z,11.70
2017-05-12T12:11:15.745Z,10.10
2017-05-12T12:13:45.554Z,11.40
2017-05-12T12:16:14.610Z,11.84
2017-05-12T12:18:43.665Z,11.14
2017-05-12T12:21:12.845Z,11.82
2017-05-12T12:23:42.662Z,10.48
2017-05-12T12:26:12.447Z,12.56
2017-05-12T12:31:04.845Z,13.78
2017-05-12T12:33:34.637Z,12.08
2017-05-12T12:36:04.461Z,12.02
2017-05-12T12:38:34.252Z,11.86
2017-05-12T12:41:03.318Z,11.14
2017-05-12T12:43:32.357Z,11.64
2017-05-12T12:46:02.187Z,11.42
2017-05-12T12:48:31.997Z,10.78
2017-05-12T12:51:01.083Z,10.96
2017-05-12T12:53:30.914Z,11.32
2017-05-12T12:55:59.970Z,10.76
2017-05-12T12:58:29.009Z,12.24
2017-05-12T13:00:58.129Z,11.98
2017-05-12T13:03:27.913Z,11.30
2017-05-12T13:05:57.011Z,11.70
2017-05-12T13:08:26.135Z,12.04
2017-05-12T13:10:56.051Z,13.14
2017-05-12T13:13:25.837Z,13.04
2017-05-12T13:15:54.882Z,11.58
2017-05-12T13:18:24.097Z,12.80
2017-05-12T13:20:53.155Z,11.76
2017-05-12T13:23:22.237Z,14.04
2017-05-12T13:25:52.049Z,13.34
2017-05-12T13:28:21.852Z,11.92
2017-05-12T13:30:50.904Z,13.02
2017-05-12T13:33:20.182Z,12.70
2017-05-12T13:35:49.269Z,12.22
2017-05-12T13:38:18.324Z,12.66
2017-05-12T13:40:47.361Z,11.72
2017-05-12T13:43:16.533Z,12.92
2017-05-12T13:45:45.579Z,13.16
2017-05-12T13:48:14.735Z,12.86
2017-05-12T13:50:44.518Z,11.82
2017-05-12T13:53:13.583Z,13.62
2017-05-12T13:55:42.738Z,13.94
2017-05-12T13:58:12.551Z,12.28
2017-05-12T14:00:41.684Z,13.10
2017-05-12T14:03:10.757Z,11.98
2017-05-12T14:05:39.913Z,11.96
2017-05-12T14:08:09.820Z,11.12
2017-05-12T14:10:38.917Z,11.34
2017-05-12T14:13:08.733Z,11.90
2017-05-12T14:15:38.553Z,10.80
2017-05-12T14:18:08.358Z,11.04
2017-05-12T14:20:38.173Z,10.90
2017-05-12T14:23:07.991Z,10.40
2017-05-12T14:25:37.200Z,12.26
2017-05-12T14:28:06.329Z,11.00
2017-05-12T14:30:36.131Z,11.10
2017-05-12T14:33:05.177Z,9.90
2017-05-12T14:35:34.335Z,9.36
2017-05-12T14:38:03.433Z,10.76
2017-05-12T14:40:32.548Z,9.22
2017-05-12T14:43:01.645Z,9.60
2017-05-12T14:45:31.433Z,8.56
2017-05-12T14:48:00.542Z,9.26
2017-05-12T14:50:30.362Z,9.66
2017-05-12T14:53:00.145Z,8.16
2017-05-12T14:55:29.259Z,9.58
2017-05-12T14:57:58.364Z,9.56
2017-05-12T15:00:27.495Z,8.50
2017-05-12T15:02:56.526Z,8.42
2017-05-12T15:05:25.645Z,8.86
2017-05-12T15:07:54.696Z,9.02
2017-05-12T15:10:23.877Z,10.40
2017-05-12T15:12:52.933Z,7.68
2017-05-12T15:15:22.053Z,8.40
2017-05-12T15:17:51.844Z,15.90
2017-05-12T15:20:21.661Z,8.66
2017-05-12T15:22:51.469Z,17.58
2017-05-12T15:25:20.517Z,13.56
2017-05-12T15:27:49.677Z,8.60
2017-05-12T15:30:19.460Z,8.70
2017-05-12T15:32:48.506Z,17.42
2017-05-12T15:35:17.586Z,9.14
2017-05-12T15:37:47.359Z,9.30
2017-05-12T15:40:16.506Z,8.88
2017-05-12T15:42:45.563Z,13.46
2017-05-12T15:45:15.339Z,8.94
2017-05-12T15:47:44.382Z,9.28
2017-05-12T15:50:13.458Z,10.62
2017-05-12T15:52:43.244Z,9.34
2017-05-12T15:55:12.423Z,9.56
2017-05-12T15:57:41.570Z,9.16
2017-05-12T16:00:11.370Z,9.86
2017-05-12T16:02:40.485Z,9.34
2017-05-12T16:05:09.536Z,10.64
2017-05-12T16:07:38.591Z,10.70
2017-05-12T16:10:07.641Z,9.58
2017-05-12T16:12:37.429Z,12.56
2017-05-12T16:15:06.554Z,11.36
2017-05-12T16:17:36.341Z,12.90
2017-05-12T16:20:05.455Z,10.66
2017-05-12T16:22:35.271Z,9.98
2017-05-12T16:25:04.309Z,11.50
2017-05-12T16:27:34.125Z,11.12
2017-05-12T16:30:03.950Z,11.08
2017-05-12T16:32:33.006Z,10.76
2017-05-12T16:35:02.121Z,10.58
2017-05-12T16:37:31.183Z,10.70
2017-05-12T16:40:00.313Z,10.82
2017-05-12T16:42:29.512Z,11.32
2017-05-12T16:44:58.541Z,10.04
2017-05-12T16:47:27.715Z,9.96
2017-05-12T16:49:57.500Z,10.72
2017-05-12T16:52:26.604Z,9.66
2017-05-12T16:54:56.390Z,11.78
2017-05-12T16:57:25.449Z,15.38
2017-05-12T16:59:54.498Z,16.88
2017-05-12T17:02:24.289Z,12.38
2017-05-12T17:04:53.330Z,13.24
2017-05-12T17:07:22.396Z,11.40
2017-05-12T17:09:52.180Z,11.10
2017-05-12T17:12:21.451Z,11.32
2017-05-12T17:14:50.707Z,11.06
2017-05-12T17:17:20.523Z,10.14
2017-05-12T17:19:49.557Z,9.06
2017-05-12T17:22:19.189Z,9.28
2017-05-12T17:24:48.289Z,16.44
2017-05-12T17:27:18.102Z,7.82
2017-05-12T17:29:47.138Z,7.86
2017-05-12T17:32:16.297Z,9.20
2017-05-12T17:34:45.695Z,8.50
2017-05-12T17:37:15.610Z,8.56
2017-05-12T17:39:44.641Z,9.36
2017-05-12T17:42:13.714Z,11.02
2017-05-12T17:44:43.509Z,9.66
2017-05-12T17:47:12.567Z,9.38
2017-05-12T17:49:41.603Z,8.24
2017-05-12T17:52:10.714Z,11.18
2017-05-12T17:54:40.489Z,10.20
2017-05-12T17:57:09.525Z,8.90
2017-05-12T17:59:39.417Z,8.74
2017-05-12T18:02:08.451Z,8.48
2017-05-12T18:04:37.498Z,8.54
2017-05-12T18:07:06.531Z,7.70
2017-05-12T18:09:35.621Z,7.76
2017-05-12T18:12:04.650Z,7.70
2017-05-12T18:14:33.790Z,10.46
2017-05-12T18:17:03.564Z,8.10
2017-05-12T18:19:32.697Z,7.88
2017-05-12T18:22:01.732Z,7.98
2017-05-12T18:24:30.807Z,9.02
2017-05-12T18:27:00.593Z,7.98
2017-05-12T18:29:29.645Z,9.94
2017-05-12T18:31:58.696Z,9.52
2017-05-12T18:34:28.533Z,7.60
2017-05-12T18:36:57.591Z,7.34
2017-05-12T18:39:26.622Z,8.74
2017-05-12T18:41:55.711Z,10.96
2017-05-12T18:44:25.519Z,12.60
2017-05-12T18:46:55.418Z,8.56
2017-05-12T18:49:24.448Z,9.20
2017-05-12T18:51:53.606Z,7.62
2017-05-12T18:54:22.643Z,13.50
2017-05-12T18:56:51.817Z,32.94
2017-05-12T18:59:21.629Z,11.72
2017-05-12T19:01:51.543Z,8.32
2017-05-12T19:04:21.328Z,12.94
2017-05-12T19:06:50.385Z,11.86
2017-05-12T19:09:19.537Z,15.34
2017-05-12T19:11:49.457Z,12.18
2017-05-12T19:14:19.270Z,12.12
2017-05-12T19:16:48.349Z,10.00
2017-05-12T19:19:17.564Z,13.84
2017-05-12T19:21:47.523Z,13.10
2017-05-12T19:24:16.553Z,11.70
2017-05-12T19:26:45.593Z,10.28
2017-05-12T19:29:14.676Z,10.22
2017-05-12T19:31:44.453Z,33.38
2017-05-12T19:34:13.584Z,26.88
2017-05-12T19:36:43.395Z,16.26
2017-05-12T19:39:13.258Z,12.02
2017-05-12T19:41:42.398Z,11.92
2017-05-12T19:44:12.202Z,10.82
2017-05-12T19:46:41.246Z,10.60
2017-05-12T19:49:10.397Z,12.24
2017-05-12T19:51:39.478Z,10.32
2017-05-12T19:54:08.507Z,12.22
2017-05-12T19:56:37.564Z,11.12
2017-05-12T19:59:06.637Z,18.62
2017-05-12T20:01:35.775Z,14.58
2017-05-12T20:04:05.581Z,11.94
2017-05-12T20:06:34.646Z,11.06
2017-05-12T20:09:03.694Z,11.32
2017-05-12T20:11:32.747Z,12.68
2017-05-12T20:14:01.810Z,9.74
2017-05-12T20:16:30.883Z,13.22
2017-05-12T20:18:59.941Z,11.54
2017-05-12T20:21:29.070Z,11.30
2017-05-12T20:23:58.981Z,10.86
2017-05-12T20:26:28.785Z,10.38
2017-05-12T20:28:58.602Z,10.34
2017-05-12T20:31:28.389Z,10.90
2017-05-12T20:33:57.529Z,10.54
2017-05-12T20:36:26.565Z,10.50
2017-05-12T20:38:55.709Z,10.88
2017-05-12T20:41:25.521Z,10.90
2017-05-12T20:43:55.344Z,10.16
2017-05-12T20:46:25.114Z,10.42
2017-05-12T20:48:54.247Z,11.20
2017-05-12T20:51:24.054Z,20.02
2017-05-12T20:53:53.879Z,12.24
2017-05-12T20:56:23.651Z,12.72
2017-05-12T20:58:52.721Z,17.70
2017-05-12T21:01:21.774Z,14.82
2017-05-12T21:03:51.715Z,12.42
2017-05-12T21:06:20.782Z,13.38
2017-05-12T21:08:50.704Z,12.36
2017-05-12T21:11:19.749Z,11.74
2017-05-12T21:13:48.831Z,12.78
2017-05-12T21:16:17.865Z,13.46
2017-05-12T21:18:47.037Z,12.82
2017-05-12T21:21:16.829Z,13.46
2017-05-12T21:23:45.946Z,15.28
2017-05-12T21:26:15.760Z,12.74
2017-05-12T21:28:45.612Z,13.54
2017-05-12T21:31:14.689Z,14.28
2017-05-12T21:33:43.838Z,13.78
2017-05-12T21:36:12.957Z,13.92
2017-05-12T21:38:42.784Z,13.34
2017-05-12T21:41:12.566Z,14.80
2017-05-12T21:43:41.682Z,14.38
2017-05-12T21:46:11.488Z,13.90
2017-05-12T21:48:41.299Z,14.22
2017-05-12T21:51:10.350Z,14.22
2017-05-12T21:53:39.500Z,14.02
2017-05-12T21:56:09.281Z,15.68
2017-05-12T21:58:38.502Z,15.48
2017-05-12T22:01:07.536Z,14.34
2017-05-12T22:03:36.745Z,14.98
2017-05-12T22:06:05.793Z,15.44
2017-05-12T22:08:34.887Z,15.46
2017-05-12T22:11:03.921Z,16.40
2017-05-12T22:13:33.085Z,18.12
2017-05-12T22:16:02.897Z,23.42
2017-05-12T22:18:32.732Z,18.44
2017-05-12T22:21:01.780Z,19.58
2017-05-12T22:23:30.902Z,20.48
2017-05-12T22:26:00.719Z,19.56
2017-05-12T22:28:30.624Z,18.76
2017-05-12T22:30:59.655Z,21.54
2017-05-12T22:33:28.714Z,19.96
2017-05-12T22:35:57.771Z,20.88
2017-05-12T22:38:26.925Z,17.30
2017-05-12T22:40:56.026Z,18.66
2017-05-12T22:43:25.083Z,19.14
2017-05-12T22:45:54.272Z,20.42
2017-05-12T22:48:23.663Z,20.50
2017-05-12T22:50:53.056Z,21.84
2017-05-12T22:53:22.668Z,21.24
2017-05-12T22:55:51.931Z,21.00
2017-05-12T22:58:21.724Z,20.72
2017-05-12T23:00:51.515Z,22.58
2017-05-12T23:03:20.582Z,21.24
2017-05-12T23:05:49.629Z,20.54
2017-05-12T23:08:18.733Z,21.30
2017-05-12T23:10:48.515Z,20.76
2017-05-12T23:13:17.634Z,25.10
2017-05-12T23:15:47.431Z,21.86
2017-05-12T23:18:16.569Z,21.00
2017-05-12T23:20:45.641Z,21.84
2017-05-12T23:23:15.450Z,20.20
2017-05-12T23:25:45.243Z,21.56
2017-05-12T23:28:14.306Z,21.12
2017-05-12T23:30:43.366Z,21.56
2017-05-12T23:33:13.200Z,21.68
2017-05-12T23:35:42.242Z,22.08
2017-05-12T23:38:11.304Z,22.70
2017-05-12T23:40:40.354Z,22.56
2017-05-12T23:43:10.145Z,22.22
2017-05-12T23:45:39.219Z,26.80
2017-05-12T23:48:08.364Z,22.70
2017-05-12T23:50:38.165Z,22.78
2017-05-12T23:53:07.204Z,23.00
2017-05-12T23:55:36.257Z,22.54
2017-05-12T23:58:06.090Z,24.02
